Time;durP1;ratioP1;P1;durP2;ratioP2;P2;SDS_P1;SDS_P2;PMS_P1;PMS_P2;Temp;Humidity;BMP_temperature;BMP_pressure;BME280_temperature;BME280_humidity;BME280_pressure;Samples;Min_cycle;Max_cycle;Signal;HPM_P1;HPM_P2
2024/02/09 00:00:45;;;;;;;2.42;1.40;;;;;;;28.87;65.76;101251.31;5040146;28;66632;-35
2024/02/09 00:03:18;;;;;;;2.13;1.77;;;;;;;28.93;66.05;101258.63;5040410;28;70368;-34
2024/02/09 00:05:50;;;;;;;1.88;1.20;;;;;;;28.95;66.48;101261.97;5031971;28;66590;-34
2024/02/09 00:08:22;;;;;;;1.33;1.20;;;;;;;28.96;66.85;101274.41;5040305;28;69655;-34
2024/02/09 00:10:53;;;;;;;4.65;1.73;;;;;;;29.02;66.76;101282.75;5040849;28;66132;-35
2024/02/09 00:13:24;;;;;;;8.87;2.97;;;;;;;29.01;66.98;101281.09;5026589;28;70070;-35
2024/02/09 00:15:56;;;;;;;6.10;4.50;;;;;;;29.03;67.71;101289.81;5040534;28;65746;-34
2024/02/09 00:18:27;;;;;;;8.20;7.75;;;;;;;29.07;68.59;101291.97;5040142;28;70298;-35
2024/02/09 00:20:58;;;;;;;10.48;9.50;;;;;;;29.12;70.07;101299.50;5040152;28;65545;-35
2024/02/09 00:23:32;;;;;;;9.73;8.87;;;;;;;29.11;71.57;101308.59;5040631;28;69992;-34
2024/02/09 00:26:04;;;;;;;9.60;8.77;;;;;;;29.11;73.25;101309.47;5040879;28;66825;-35
2024/02/09 00:28:35;;;;;;;10.15;8.77;;;;;;;29.09;74.82;101302.59;5039483;28;70194;-35
2024/02/09 00:31:07;;;;;;;10.90;9.98;;;;;;;29.08;75.39;101309.84;5032669;28;66475;-34
2024/02/09 00:33:38;;;;;;;11.25;10.35;;;;;;;29.10;74.61;101315.88;5030045;28;71031;-35
2024/02/09 00:36:10;;;;;;;15.35;13.95;;;;;;;29.11;76.64;101312.16;5034034;28;66544;-35
2024/02/09 00:38:42;;;;;;;30.70;22.80;;;;;;;29.12;76.53;101313.00;5036142;28;70233;-35
2024/02/09 00:41:17;;;;;;;40.60;26.33;;;;;;;28.97;75.86;101288.75;5033213;28;66541;-35
2024/02/09 00:43:48;;;;;;;48.58;27.65;;;;;;;29.16;76.76;101322.38;5049667;28;71163;-35
2024/02/09 00:46:19;;;;;;;44.75;27.20;;;;;;;29.21;76.01;101325.31;5035296;28;66752;-35
2024/02/09 00:48:50;;;;;;;41.70;25.48;;;;;;;29.21;76.05;101336.13;5034307;28;70448;-34
2024/02/09 00:51:22;;;;;;;34.85;21.95;;;;;;;29.22;77.46;101342.34;5034752;28;66905;-36
2024/02/09 00:53:53;;;;;;;23.00;19.17;;;;;;;29.17;78.08;101340.25;5036498;28;69603;-34
2024/02/09 00:56:23;;;;;;;23.42;16.25;;;;;;;29.21;77.32;101346.91;5038301;28;66707;-36
2024/02/09 00:58:55;;;;;;;41.03;15.65;;;;;;;29.13;79.36;101355.19;5039330;28;70328;-35
2024/02/09 01:01:26;;;;;;;18.85;14.07;;;;;;;29.12;78.91;101358.91;5027567;28;65880;-35
2024/02/09 01:03:58;;;;;;;17.03;12.90;;;;;;;29.11;77.35;101368.03;5039459;28;69515;-35
2024/02/09 01:06:29;;;;;;;15.40;13.35;;;;;;;29.12;79.25;101369.72;5030111;28;66447;-35
2024/02/09 01:09:05;;;;;;;15.70;12.85;;;;;;;29.09;79.58;101370.13;5037937;28;69411;-36
2024/02/09 01:11:38;;;;;;;16.95;14.13;;;;;;;29.11;78.28;101379.69;5040236;28;65787;-35
2024/02/09 02:47:03;;;;;;;16.67;15.32;;;;;;;29.90;77.00;101402.84;5042142;28;66570;-35
2024/02/09 03:06:27;;;;;;;72.60;46.58;;;;;;;30.11;77.40;101391.06;5041481;28;69812;-37
2024/02/09 03:09:12;;;;;;;70.13;45.13;;;;;;;30.12;76.47;101395.47;5055244;28;65150;-36
2024/02/09 03:11:45;;;;;;;70.18;45.20;;;;;;;30.19;77.77;101393.59;5036526;28;70431;-36
2024/02/09 03:14:16;;;;;;;67.25;39.60;;;;;;;30.15;78.10;101386.09;5041672;28;66644;-36
2024/02/09 03:16:48;;;;;;;50.80;32.83;;;;;;;30.22;77.76;101392.38;5040556;28;70345;-36
2024/02/09 03:19:19;;;;;;;40.88;29.52;;;;;;;30.26;77.60;101394.47;5042426;28;66734;-36
2024/02/09 03:21:49;;;;;;;36.63;27.58;;;;;;;30.30;77.57;101399.50;5040586;28;70490;-35
2024/02/09 03:24:20;;;;;;;32.80;24.25;;;;;;;30.35;77.50;101397.00;5041488;28;65627;-37
2024/02/09 03:26:51;;;;;;;23.83;21.42;;;;;;;30.22;76.53;101374.28;5040271;28;70876;-36
2024/02/09 03:29:21;;;;;;;27.52;21.27;;;;;;;30.37;77.77;101390.34;5037197;28;65979;-35
2024/02/09 03:31:52;;;;;;;27.77;21.05;;;;;;;30.42;76.86;101390.56;5039896;28;70376;-36
2024/02/09 03:34:22;;;;;;;22.67;19.92;;;;;;;30.41;77.91;101386.19;5035167;28;66397;-36
2024/02/09 03:36:56;;;;;;;21.58;19.45;;;;;;;30.47;76.75;101385.34;5036722;28;69734;-36
2024/02/09 03:39:26;;;;;;;22.85;19.42;;;;;;;30.54;77.38;101388.09;5039820;28;66315;-35
2024/02/09 03:41:58;;;;;;;22.13;18.00;;;;;;;30.58;76.83;101374.97;5036519;28;70346;-36
2024/02/09 03:44:29;;;;;;;26.35;17.58;;;;;;;30.57;76.85;101371.44;5030412;28;66585;-36
2024/02/09 03:46:59;;;;;;;20.27;17.00;;;;;;;30.60;77.26;101373.72;5037645;28;70126;-36
2024/02/09 03:49:30;;;;;;;18.08;16.45;;;;;;;30.65;76.53;101371.22;5030730;28;66173;-35
2024/02/09 03:52:01;;;;;;;17.45;15.75;;;;;;;30.70;76.87;101359.75;5028411;28;69371;-36
2024/02/09 03:54:32;;;;;;;17.23;15.45;;;;;;;30.73;76.77;101357.50;5028096;28;66571;-36
2024/02/09 03:57:03;;;;;;;18.08;15.48;;;;;;;30.77;76.60;101365.19;5029130;28;70275;-37
2024/02/09 03:59:33;;;;;;;17.35;15.77;;;;;;;30.79;76.54;101358.53;5024207;28;65680;-37
2024/02/09 04:02:07;;;;;;;16.35;14.75;;;;;;;30.81;76.25;101355.63;5030221;28;69684;-36
2024/02/09 04:04:37;;;;;;;16.35;14.90;;;;;;;30.77;76.31;101340.81;5031456;28;66005;-36
2024/02/09 04:07:08;;;;;;;15.23;14.03;;;;;;;30.82;76.31;101344.59;5026198;28;69677;-35
2024/02/09 04:09:40;;;;;;;15.17;13.90;;;;;;;30.86;75.73;101351.25;5040082;28;65060;-36
2024/02/09 04:12:31;;;;;;;15.18;14.05;;;;;;;30.91;75.05;101351.47;5037069;28;69960;-38
2024/02/09 04:15:05;;;;;;;14.00;12.88;;;;;;;30.92;74.79;101349.59;5036642;28;43315;-37
2024/02/09 04:17:36;;;;;;;14.60;13.57;;;;;;;30.96;74.24;101356.25;5039319;28;70342;-36
2024/02/09 04:20:09;;;;;;;15.43;14.07;;;;;;;30.99;73.94;101350.44;5041454;28;66330;-36
2024/02/09 04:22:39;;;;;;;18.48;16.77;;;;;;;30.94;73.68;101342.09;5041730;28;70244;-37
2024/02/09 04:25:10;;;;;;;20.45;18.35;;;;;;;30.95;73.31;101332.91;5039005;28;66469;-35
2024/02/09 04:27:42;;;;;;;23.55;19.08;;;;;;;31.00;73.19;101332.28;5039552;28;70247;-36
2024/02/09 04:30:15;;;;;;;23.48;21.00;;;;;;;31.03;73.45;101327.28;5029107;28;65132;-36
2024/02/09 04:32:45;;;;;;;27.35;22.27;;;;;;;31.09;72.97;101334.59;5031152;28;70521;-37
2024/02/09 04:35:17;;;;;;;23.23;20.83;;;;;;;31.10;73.03;101324.56;5039113;28;65944;-37
2024/02/09 04:37:48;;;;;;;21.85;19.17;;;;;;;31.12;73.48;101315.19;5040070;28;70064;-36
2024/02/09 04:40:19;;;;;;;20.75;19.00;;;;;;;31.15;72.85;101306.63;5039786;28;66587;-36
2024/02/09 04:42:50;;;;;;;21.30;19.08;;;;;;;31.22;71.85;101303.06;5037735;28;70309;-36
2024/02/09 04:45:22;;;;;;;21.15;19.15;;;;;;;31.23;72.19;101294.75;5040074;28;66538;-37
2024/02/09 04:47:53;;;;;;;20.52;18.73;;;;;;;31.26;71.60;101286.19;5039360;28;70175;-36
2024/02/09 04:50:24;;;;;;;31.50;25.73;;;;;;;31.30;71.87;101292.00;5038557;28;66117;-40
2024/02/09 04:52:55;;;;;;;34.40;29.50;;;;;;;31.31;71.63;101280.09;5038559;28;70032;-36
2024/02/09 04:55:27;;;;;;;36.28;32.45;;;;;;;31.36;71.45;101277.63;5035962;28;65757;-36
2024/02/09 04:57:58;;;;;;;39.75;28.77;;;;;;;31.39;70.80;101269.03;5041829;28;70452;-36
2024/02/09 05:00:29;;;;;;;35.50;28.23;;;;;;;31.38;70.77;101264.69;5042134;28;66217;-36
2024/02/09 05:03:00;;;;;;;33.67;30.17;;;;;;;31.37;70.92;101255.72;5037842;28;69663;-36
2024/02/09 05:05:32;;;;;;;43.08;30.27;;;;;;;31.45;70.63;101251.91;5028867;28;65698;-36
2024/02/09 05:08:05;;;;;;;42.92;31.30;;;;;;;31.50;70.60;101254.81;5041987;28;69998;-37
2024/02/09 05:10:39;;;;;;;38.25;31.67;;;;;;;31.50;70.08;101254.81;5044222;28;65779;-41
2024/02/09 05:13:10;;;;;;;33.28;29.90;;;;;;;31.53;70.46;101243.53;5043391;28;69938;-37
2024/02/09 05:15:40;;;;;;;33.83;28.23;;;;;;;31.53;70.29;101240.00;5043574;28;64901;-35
2024/02/09 05:18:14;;;;;;;28.45;25.58;;;;;;;31.56;69.42;101229.53;5043371;28;70133;-35
2024/02/09 05:20:48;;;;;;;27.05;24.35;;;;;;;31.59;69.49;101231.84;5042786;28;65858;-37
2024/02/09 05:23:19;;;;;;;25.48;23.10;;;;;;;31.61;69.54;101221.59;5043029;28;70112;-36
2024/02/09 05:25:49;;;;;;;25.55;23.02;;;;;;;31.60;69.33;101206.38;5043879;28;66541;-36
2024/02/09 05:28:20;;;;;;;22.70;20.43;;;;;;;31.70;69.38;101215.91;5040815;28;69838;-37
2024/02/09 05:30:51;;;;;;;23.92;21.60;;;;;;;31.66;69.45;101204.69;5043444;28;65747;-36
2024/02/09 05:33:22;;;;;;;24.02;21.65;;;;;;;31.68;69.28;101197.16;5042612;28;70410;-35
2024/02/09 05:35:53;;;;;;;24.98;22.77;;;;;;;31.75;69.37;101186.25;5041864;28;66549;-37
2024/02/09 05:38:24;;;;;;;25.27;22.70;;;;;;;31.76;69.71;101185.19;5034121;28;70300;-37
2024/02/09 05:40:54;;;;;;;26.65;24.05;;;;;;;31.79;69.11;101176.66;5034434;28;66569;-38
2024/02/09 05:43:25;;;;;;;26.63;24.02;;;;;;;31.78;69.20;101166.84;5038965;28;70787;-36
2024/02/09 05:45:56;;;;;;;27.52;24.67;;;;;;;31.85;68.48;101164.91;5039218;28;65403;-36
2024/02/09 05:48:27;;;;;;;26.98;24.33;;;;;;;31.84;68.31;101168.66;5032139;28;70364;-35
2024/02/09 05:50:57;;;;;;;26.77;24.08;;;;;;;31.90;68.59;101156.94;5032320;28;65627;-35
2024/02/09 05:53:28;;;;;;;28.52;25.67;;;;;;;31.89;68.04;101157.97;5040033;28;70434;-36
2024/02/09 05:56:00;;;;;;;28.20;25.67;;;;;;;31.94;67.79;101158.19;5038673;28;65734;-35
2024/02/09 05:58:31;;;;;;;28.48;25.27;;;;;;;31.94;67.80;101150.03;5039356;28;70266;-36
2024/02/09 06:01:01;;;;;;;26.20;24.02;;;;;;;32.01;67.63;101137.28;5035081;28;66402;-36
2024/02/09 06:03:33;;;;;;;26.73;23.88;;;;;;;32.05;67.33;101137.66;5037653;28;71538;-36
2024/02/09 06:06:04;;;;;;;26.23;23.93;;;;;;;32.07;67.19;101129.25;5040777;28;66130;-36
2024/02/09 06:08:36;;;;;;;28.73;25.90;;;;;;;32.09;66.84;101130.72;5036957;28;69862;-36
2024/02/09 06:11:07;;;;;;;27.65;25.08;;;;;;;32.07;66.82;101121.13;5041206;28;65252;-37
2024/02/09 06:13:37;;;;;;;25.90;23.70;;;;;;;32.11;66.77;101120.47;5047994;28;70730;-36
2024/02/09 06:16:08;;;;;;;26.20;23.42;;;;;;;32.11;66.40;101104.19;5040131;28;66821;-36
2024/02/09 06:18:39;;;;;;;32.53;23.25;;;;;;;32.11;66.49;101112.31;5037607;28;70106;-37
2024/02/09 06:21:10;;;;;;;25.20;19.50;;;;;;;32.23;66.91;101110.56;5041012;28;67840;-37
2024/02/09 06:23:43;;;;;;;20.80;18.58;;;;;;;32.26;67.07;101111.97;5038864;28;69975;-37
2024/02/09 06:26:18;;;;;;;24.33;16.50;;;;;;;32.21;67.17;101106.41;5036450;28;66500;-36
2024/02/09 06:28:49;;;;;;;19.80;14.43;;;;;;;32.26;67.19;101095.69;5035747;28;70384;-36
2024/02/09 06:31:25;;;;;;;13.07;11.70;;;;;;;32.30;67.67;101091.47;5038946;28;66675;-37
2024/02/09 06:33:58;;;;;;;10.98;9.23;;;;;;;32.38;67.44;101082.22;5039159;28;70335;-36
2024/02/09 06:36:29;;;;;;;10.57;9.48;;;;;;;32.37;67.48;101075.91;5036744;28;66020;-38
2024/02/09 06:39:00;;;;;;;8.93;8.32;;;;;;;32.36;67.85;101068.84;5035661;28;69539;-36
2024/02/09 06:41:31;;;;;;;8.70;7.80;;;;;;;32.39;67.68;101073.81;5042663;28;65419;-36
2024/02/09 06:44:01;;;;;;;7.43;7.03;;;;;;;32.46;67.55;101058.34;5042303;28;70063;-35
2024/02/09 06:46:32;;;;;;;6.95;6.03;;;;;;;32.48;67.49;101039.06;5028344;28;66344;-37
2024/02/09 06:49:03;;;;;;;5.35;5.15;;;;;;;32.42;66.14;101051.66;5042362;28;69187;-35
2024/02/09 06:51:35;;;;;;;5.68;5.38;;;;;;;32.41;63.85;101044.56;5042895;28;66185;-35
2024/02/09 06:54:05;;;;;;;5.70;5.10;;;;;;;32.38;62.86;101047.75;5041195;28;70348;-36
2024/02/09 06:56:36;;;;;;;4.82;4.63;;;;;;;32.34;61.00;101049.22;5042531;28;66501;-37
2024/02/09 06:59:09;;;;;;;5.38;3.90;;;;;;;32.36;59.89;101049.84;5038645;28;70104;-37
2024/02/09 07:01:43;;;;;;;4.95;4.40;;;;;;;32.31;59.87;101038.81;5033202;28;66787;-36
2024/02/09 07:04:18;;;;;;;4.25;3.95;;;;;;;32.31;58.99;101041.53;5040851;28;68525;-36
2024/02/09 07:06:51;;;;;;;4.10;3.78;;;;;;;32.26;57.67;101033.25;5041086;28;66015;-35
2024/02/09 07:09:23;;;;;;;3.95;3.75;;;;;;;32.19;57.72;101036.03;5039040;28;69552;-37
2024/02/09 07:12:06;;;;;;;4.15;3.85;;;;;;;32.19;56.81;101024.38;5041514;28;66433;-35
2024/02/09 07:14:37;;;;;;;3.85;3.65;;;;;;;32.19;57.36;101035.22;5028161;28;70118;-37
2024/02/09 07:17:07;;;;;;;7.60;3.97;;;;;;;32.13;56.28;101022.56;5038162;28;66239;-37
2024/02/09 07:19:39;;;;;;;6.70;6.20;;;;;;;32.18;56.30;101022.69;5038770;28;69145;-37
2024/02/09 07:22:09;;;;;;;6.72;6.22;;;;;;;32.19;57.08;101013.50;5038955;28;66518;-37
2024/02/09 07:24:40;;;;;;;7.43;5.75;;;;;;;32.16;55.72;101011.25;5041928;28;69763;-36
2024/02/09 07:27:13;;;;;;;5.87;5.47;;;;;;;32.15;55.66;100998.72;5047306;28;66323;-37
2024/02/09 07:29:47;;;;;;;4.97;4.68;;;;;;;32.22;56.10;100996.78;5041328;28;70189;-37
2024/02/09 07:32:18;;;;;;;4.53;4.22;;;;;;;32.14;55.16;100999.78;5041645;28;66394;-37
2024/02/09 07:34:48;;;;;;;4.20;4.00;;;;;;;32.17;54.29;100993.91;5040977;28;70613;-36
2024/02/09 07:37:23;;;;;;;4.95;4.55;;;;;;;32.15;54.49;100980.56;5041384;28;65750;-35
2024/02/09 07:39:55;;;;;;;3.58;3.38;;;;;;;32.17;54.52;100988.47;5039738;28;70607;-37
2024/02/09 07:42:26;;;;;;;;;;;;;;;32.11;51.90;100989.38;5039852;28;66355;-36
2024/02/09 07:44:57;;;;;;;3.38;3.17;;;;;;;32.20;54.14;100988.84;5041276;28;70674;-35
2024/02/09 07:47:32;;;;;;;7.05;3.35;;;;;;;32.13;54.29;100987.28;5040384;28;65577;-37
2024/02/09 07:50:04;;;;;;;8.15;7.50;;;;;;;32.21;56.14;100978.84;5031834;28;70318;-37
2024/02/09 07:52:38;;;;;;;12.57;11.15;;;;;;;32.36;58.90;100978.44;5036776;28;66405;-36
2024/02/09 07:55:08;;;;;;;13.32;11.88;;;;;;;32.49;60.18;100976.41;5033619;28;69979;-37
2024/02/09 07:57:39;;;;;;;16.73;13.13;;;;;;;32.55;60.93;100968.41;5030801;28;65882;-36
2024/02/09 08:00:10;;;;;;;35.05;13.10;;;;;;;32.69;61.39;100975.31;5034541;28;70385;-36
2024/02/09 08:02:41;;;;;;;27.80;13.15;;;;;;;32.86;61.24;100973.59;5040789;28;66184;-36
2024/02/09 08:05:17;;;;;;;23.45;13.57;;;;;;;33.00;61.66;100978.88;5040958;28;70354;-36
2024/02/09 08:07:49;;;;;;;19.17;13.18;;;;;;;33.07;62.25;100972.28;5040375;28;66214;-36
2024/02/09 08:10:20;;;;;;;15.32;12.85;;;;;;;33.16;62.24;100975.47;5027579;28;70393;-36
2024/02/09 08:12:51;;;;;;;17.20;12.93;;;;;;;33.15;63.32;100974.66;5041480;28;66593;-35
2024/02/09 08:15:22;;;;;;;25.65;14.32;;;;;;;33.19;64.03;100969.56;5039718;28;70150;-36
2024/02/09 08:17:53;;;;;;;15.15;12.10;;;;;;;33.19;63.31;100964.13;5041133;28;65188;-35
2024/02/09 08:20:23;;;;;;;13.43;11.93;;;;;;;33.25;63.10;100965.91;5041220;28;70482;-35
2024/02/09 08:22:54;;;;;;;13.07;11.80;;;;;;;33.29;62.77;100967.09;5040255;28;67169;-35
2024/02/09 08:25:25;;;;;;;12.35;11.15;;;;;;;33.29;62.75;100953.50;5040710;28;70016;-37
2024/02/09 08:27:55;;;;;;;16.60;11.57;;;;;;;33.41;62.97;100961.69;5042216;28;66541;-36
2024/02/09 08:30:26;;;;;;;19.52;12.43;;;;;;;33.45;63.53;100967.47;5042993;28;70044;-37
2024/02/09 08:32:57;;;;;;;16.20;12.70;;;;;;;33.47;63.40;100970.78;5044798;28;66302;-36
2024/02/09 08:35:27;;;;;;;16.42;12.15;;;;;;;33.52;63.25;100960.88;5043381;28;69570;-36
2024/02/09 08:37:58;;;;;;;21.23;12.57;;;;;;;33.47;63.13;100962.63;5042681;28;65810;-36
2024/02/09 08:40:29;;;;;;;14.68;11.75;;;;;;;33.57;62.92;100977.31;5043892;28;69529;-36
2024/02/09 08:43:00;;;;;;;19.95;11.55;;;;;;;33.62;63.02;100973.03;5043607;28;67332;-35
2024/02/09 08:45:31;;;;;;;12.65;10.38;;;;;;;33.63;63.61;100969.25;5042234;28;70613;-36
2024/02/09 08:48:01;;;;;;;11.48;10.45;;;;;;;33.68;63.51;100967.47;5043440;28;65932;-36
2024/02/09 08:50:32;;;;;;;12.38;10.55;;;;;;;33.66;63.61;100961.47;5043712;28;70471;-36
2024/02/09 08:53:04;;;;;;;12.60;10.98;;;;;;;33.74;64.03;100966.53;5043380;28;66164;-36
2024/02/09 08:55:35;;;;;;;15.65;10.05;;;;;;;33.78;63.61;100965.00;5043369;28;69593;-35
2024/02/09 08:58:07;;;;;;;14.52;11.23;;;;;;;33.73;64.43;100964.88;5041150;28;66116;-35
2024/02/09 09:00:37;;;;;;;12.77;11.50;;;;;;;33.83;64.82;100966.19;5041028;28;70249;-36
2024/02/09 09:03:18;;;;;;;16.40;11.10;;;;;;;33.83;64.45;100968.91;5034109;28;66688;-36
2024/02/09 09:05:49;;;;;;;14.07;12.27;;;;;;;33.85;64.86;100966.75;5042275;28;69473;-36
2024/02/09 09:08:20;;;;;;;14.63;11.07;;;;;;;33.91;64.39;100965.81;5042171;28;66101;-35
2024/02/09 09:10:51;;;;;;;13.07;10.30;;;;;;;34.05;64.46;100977.31;5043470;28;70528;-36
2024/02/09 09:13:23;;;;;;;10.38;9.38;;;;;;;34.15;64.72;100978.31;5041254;28;66687;-35
2024/02/09 09:15:53;;;;;;;15.77;8.85;;;;;;;34.17;64.12;100965.31;5042412;28;69563;-36
2024/02/09 09:18:24;;;;;;;8.18;7.75;;;;;;;34.29;64.05;100983.50;5041754;28;66665;-36
2024/02/09 09:20:55;;;;;;;9.40;8.27;;;;;;;34.31;64.03;100982.19;5041965;28;70733;-35
2024/02/09 09:23:26;;;;;;;8.68;7.90;;;;;;;34.37;64.33;100989.38;5036787;28;65953;-35
2024/02/09 09:25:57;;;;;;;7.75;7.13;;;;;;;34.38;63.98;100984.75;5039306;28;69168;-35
2024/02/09 09:28:30;;;;;;;10.02;7.38;;;;;;;34.43;63.65;100988.41;5039073;28;65656;-34
2024/02/09 09:31:01;;;;;;;7.80;7.20;;;;;;;34.49;63.96;100989.34;5038842;28;70562;-36
2024/02/09 09:33:32;;;;;;;7.75;7.25;;;;;;;34.51;63.84;100989.94;5038241;28;66131;-36
2024/02/09 09:36:03;;;;;;;7.53;6.97;;;;;;;34.57;63.42;100993.63;5037449;28;69575;-34
2024/02/09 09:38:33;;;;;;;7.77;7.37;;;;;;;34.59;63.70;100995.03;5039150;28;66458;-35
2024/02/09 09:41:04;;;;;;;7.28;6.78;;;;;;;34.65;63.55;100998.69;5036440;28;69957;-35
2024/02/09 09:43:34;;;;;;;7.40;6.85;;;;;;;34.69;63.42;101000.69;5038282;28;66491;-35
2024/02/09 09:46:08;;;;;;;6.78;6.38;;;;;;;34.66;63.65;100984.81;5037933;28;71825;-35
2024/02/09 09:48:40;;;;;;;7.65;6.95;;;;;;;34.78;62.83;101001.13;5037220;28;65678;-35
2024/02/09 09:51:12;;;;;;;6.40;6.00;;;;;;;34.80;63.15;100998.13;5038431;28;68676;-36
2024/02/09 09:53:44;;;;;;;7.80;6.00;;;;;;;34.83;63.30;101000.41;5037027;28;65441;-36
2024/02/09 09:56:15;;;;;;;6.47;6.05;;;;;;;34.88;63.44;101005.91;5036640;28;70458;-36
2024/02/09 09:58:46;;;;;;;6.37;6.00;;;;;;;34.89;62.94;101008.41;5039060;28;66219;-35
2024/02/09 10:01:17;;;;;;;;;;;;;;;34.88;62.46;101020.38;5036868;28;69259;-34
2024/02/09 10:03:55;;;;;;;6.80;6.30;;;;;;;34.94;62.72;101007.69;5038879;28;66143;-36
2024/02/09 10:06:28;;;;;;;7.00;6.57;;;;;;;34.97;63.33;101020.00;5037168;28;70479;-35
2024/02/09 10:08:59;;;;;;;20.55;9.52;;;;;;;34.97;62.49;101017.28;5036488;28;66578;-36
2024/02/09 10:11:32;;;;;;;11.15;10.05;;;;;;;34.98;62.40;101024.38;5035762;28;70181;-36
2024/02/09 10:14:14;;;;;;;10.45;9.40;;;;;;;34.92;62.27;101015.28;5036492;28;66254;-36
2024/02/09 10:16:46;;;;;;;11.25;10.32;;;;;;;34.99;62.32;101021.38;5036823;28;69602;-36
2024/02/09 10:19:17;;;;;;;12.95;11.15;;;;;;;34.96;62.55;101031.94;5032176;28;66150;-36
2024/02/09 10:21:49;;;;;;;12.98;11.55;;;;;;;34.99;62.68;101032.28;5037121;28;68942;-36
2024/02/09 10:24:28;;;;;;;15.02;11.48;;;;;;;34.86;62.26;101018.97;5037263;28;66281;-36
2024/02/09 10:27:00;;;;;;;13.13;11.82;;;;;;;34.99;62.18;101051.34;5040502;28;70574;-36
2024/02/09 10:29:31;;;;;;;14.18;10.18;;;;;;;35.01;62.88;101043.78;5039623;28;65077;-35
2024/02/09 10:32:02;;;;;;;11.00;10.05;;;;;;;35.03;62.97;101043.53;5042002;28;69573;-35
2024/02/09 10:34:35;;;;;;;9.95;8.85;;;;;;;35.03;62.89;101043.53;5041075;28;65862;-36
2024/02/09 10:37:06;;;;;;;8.30;7.80;;;;;;;35.04;62.65;101050.63;5038784;28;69774;-35
2024/02/09 10:39:49;;;;;;;8.20;7.53;;;;;;;35.08;62.92;101055.41;5028102;28;65155;-35
2024/02/09 10:42:22;;;;;;;9.30;7.00;;;;;;;35.07;62.67;101055.63;5041044;28;69900;-35
2024/02/09 10:44:54;;;;;;;8.50;7.78;;;;;;;35.04;63.07;101059.63;5040706;28;66675;-35
2024/02/09 10:47:39;;;;;;;6.80;6.35;;;;;;;35.03;63.30;101066.16;5023086;28;70404;-35
2024/02/09 10:50:12;;;;;;;7.03;6.53;;;;;;;34.97;63.41;101055.44;5041215;28;66449;-35
2024/02/09 10:52:49;;;;;;;7.13;6.50;;;;;;;34.88;62.46;101038.63;5039109;28;70037;-35
2024/02/09 10:55:28;;;;;;;7.38;6.68;;;;;;;34.96;63.13;101060.03;5040937;28;65226;-35
2024/02/09 10:57:59;;;;;;;6.47;6.03;;;;;;;34.91;63.61;101068.97;5035042;28;70410;-44
2024/02/09 11:00:31;;;;;;;6.50;6.10;;;;;;;34.90;63.19;101071.91;5035648;28;65930;-35
2024/02/09 11:03:03;;;;;;;6.75;6.25;;;;;;;34.90;63.50;101077.38;5037201;28;70552;-35
2024/02/09 11:05:52;;;;;;;7.18;6.13;;;;;;;34.87;63.40;101069.69;5033607;28;66205;-35
2024/02/09 11:08:33;;;;;;;7.05;5.82;;;;;;;34.85;63.37;101082.72;5040203;28;69944;-36
2024/02/09 11:11:27;;;;;;;6.45;5.90;;;;;;;34.83;63.21;101076.69;5040385;28;66464;-36
2024/02/09 11:14:15;;;;;;;6.57;5.97;;;;;;;34.70;63.52;101075.91;5040316;28;70150;-42
2024/02/09 11:16:52;;;;;;;6.10;5.70;;;;;;;34.79;63.27;101092.69;5038879;28;65885;-35
2024/02/09 11:19:23;;;;;;;5.97;5.57;;;;;;;34.77;63.76;101099.44;5052702;28;69476;-37
2024/02/09 11:21:57;;;;;;;5.77;5.37;;;;;;;34.60;63.41;101072.97;5036998;28;66721;-36
2024/02/09 11:24:28;;;;;;;6.07;5.68;;;;;;;34.73;63.52;101103.75;5038650;28;70919;-35
2024/02/09 11:26:59;;;;;;;6.13;5.70;;;;;;;34.68;63.83;101097.09;5038338;28;66248;-36
2024/02/09 11:29:32;;;;;;;;;;;;;;;34.59;64.05;101104.00;5033116;28;69680;-35
2024/02/09 11:32:04;;;;;;;6.35;5.85;;;;;;;34.65;63.50;101097.59;5038122;28;66855;-36
2024/02/09 11:34:37;;;;;;;6.57;5.72;;;;;;;34.54;63.59;101090.25;5035747;28;70118;-36
2024/02/09 11:37:08;;;;;;;6.15;5.68;;;;;;;34.62;63.68;101114.41;5035965;28;66148;-35
2024/02/09 11:39:39;;;;;;;6.25;5.85;;;;;;;34.59;63.94;101128.53;5037011;28;70086;-37
2024/02/09 11:42:10;;;;;;;6.18;5.57;;;;;;;34.57;64.48;101125.19;5035816;28;65770;-35
2024/02/09 11:44:44;;;;;;;6.53;5.93;;;;;;;34.51;64.08;101123.41;5035884;28;70134;-36
2024/02/09 11:47:14;;;;;;;7.68;6.85;;;;;;;34.47;64.78;101127.69;5037528;28;65887;-36
2024/02/09 11:49:46;;;;;;;8.30;7.60;;;;;;;34.43;64.99;101121.88;5037873;28;70175;-35
2024/02/09 11:52:19;;;;;;;8.45;7.40;;;;;;;34.28;64.56;101088.06;5040660;28;66478;-37
2024/02/09 11:54:50;;;;;;;8.40;7.72;;;;;;;34.25;65.24;101130.19;5037287;28;70128;-36
2024/02/09 11:57:21;;;;;;;7.88;7.30;;;;;;;34.14;66.26;101134.56;5038592;28;66511;-36
2024/02/09 11:59:53;;;;;;;8.38;7.60;;;;;;;34.06;66.62;101148.53;5040669;28;69909;-35
2024/02/09 12:02:24;;;;;;;8.02;7.43;;;;;;;34.03;66.58;101146.25;5038549;28;66446;-35
2024/02/09 12:04:57;;;;;;;9.30;8.60;;;;;;;33.92;66.73;101141.63;5039324;28;70440;-35
2024/02/09 12:07:28;;;;;;;8.70;7.78;;;;;;;33.96;66.09;101145.53;5038933;28;66081;-36
2024/02/09 12:09:59;;;;;;;9.20;8.27;;;;;;;33.89;66.47;101144.84;5039636;28;70527;-36
2024/02/09 12:12:32;;;;;;;9.02;8.10;;;;;;;33.78;66.88;101141.84;5041001;28;66467;-36
2024/02/09 12:15:06;;;;;;;8.38;7.78;;;;;;;33.72;67.60;101147.41;5041140;28;70584;-35
2024/02/09 12:17:38;;;;;;;8.55;7.72;;;;;;;33.75;67.12;101146.94;5041361;28;65439;-36
2024/02/09 12:20:10;;;;;;;;;;;;;;;33.52;68.92;101147.69;5041707;28;70077;-38
2024/02/09 12:22:45;;;;;;;8.00;7.47;;;;;;;33.58;68.35;101160.38;5027935;28;66748;-37
2024/02/09 12:25:17;;;;;;;11.82;7.70;;;;;;;33.53;68.21;101152.09;5039792;28;70220;-36
2024/02/09 12:27:55;;;;;;;13.10;8.25;;;;;;;33.59;67.72;101164.75;5040750;28;66307;-36
2024/02/09 12:30:29;;;;;;;9.50;8.77;;;;;;;33.51;68.74;101168.59;5039439;28;70585;-36
2024/02/09 12:33:00;;;;;;;9.60;8.90;;;;;;;33.47;68.31;101172.03;5040390;28;66051;-37
2024/02/09 12:35:31;;;;;;;;;;;;;;;33.24;69.88;101179.03;5040280;28;69924;-35
2024/02/09 12:38:03;;;;;;;9.25;8.55;;;;;;;33.41;68.22;101178.38;5038708;28;66862;-35
2024/02/09 12:40:34;;;;;;;12.82;11.48;;;;;;;33.41;68.27;101178.38;5039330;28;70413;-36
2024/02/09 12:43:18;;;;;;;15.10;13.60;;;;;;;33.23;68.01;101150.16;5039953;28;66523;-36
2024/02/09 12:45:48;;;;;;;14.73;13.25;;;;;;;33.36;67.42;101182.63;5040805;28;69646;-35
2024/02/09 12:48:20;;;;;;;16.42;12.85;;;;;;;33.28;67.58;101191.09;5039736;28;65378;-36
2024/02/09 12:50:52;;;;;;;13.23;12.02;;;;;;;33.25;67.80;101201.59;5038600;28;70027;-37
2024/02/09 12:53:24;;;;;;;12.43;11.38;;;;;;;33.24;67.58;101200.78;5040799;28;66330;-35
2024/02/09 12:55:55;;;;;;;12.05;10.90;;;;;;;33.17;68.21;101199.19;5039092;28;70690;-43
2024/02/09 12:58:26;;;;;;;12.50;11.30;;;;;;;33.20;67.35;101205.00;5038850;28;65324;-37
2024/02/09 13:00:57;;;;;;;11.53;10.40;;;;;;;33.09;67.80;101213.91;5040291;28;69915;-38
2024/02/09 13:03:31;;;;;;;10.95;10.15;;;;;;;33.15;67.44;101218.44;5038996;28;65236;-35
2024/02/09 13:06:05;;;;;;;12.38;11.18;;;;;;;33.17;67.55;101226.38;5040347;28;69753;-36
2024/02/09 13:08:36;;;;;;;17.25;10.10;;;;;;;33.24;67.03;101222.53;5039730;28;65968;-36
2024/02/09 13:11:07;;;;;;;15.73;11.45;;;;;;;33.27;66.73;101232.94;5039591;28;69363;-36
2024/02/09 13:13:39;;;;;;;14.43;11.05;;;;;;;33.26;66.43;101236.69;5040236;28;66153;-36
2024/02/09 13:16:12;;;;;;;11.45;10.55;;;;;;;33.25;66.38;101239.66;5043511;28;70046;-36
2024/02/09 13:18:43;;;;;;;15.57;10.65;;;;;;;33.29;66.03;101249.00;5043529;28;65737;-35
2024/02/09 13:21:15;;;;;;;10.33;9.57;;;;;;;33.26;66.23;101252.19;5042758;28;70182;-35
2024/02/09 13:23:46;;;;;;;10.75;9.63;;;;;;;33.27;65.84;101253.88;5041667;28;66110;-37
2024/02/09 13:26:16;;;;;;;9.55;8.65;;;;;;;33.25;65.64;101250.53;5043592;28;70438;-37
2024/02/09 13:28:47;;;;;;;10.45;8.50;;;;;;;33.25;65.59;101258.69;5043224;28;65733;-36